createdAt,value
2022-09-26T00:04:45.992Z,3.47
2022-09-26T00:09:47.477Z,3.80
2022-09-26T00:14:49.184Z,3.35
2022-09-26T00:19:50.710Z,3.17
2022-09-26T00:24:52.571Z,3.55
2022-09-26T00:29:54.227Z,2.75
2022-09-26T00:34:55.800Z,2.97
2022-09-26T00:39:57.543Z,3.20
2022-09-26T00:44:59.974Z,3.17
2022-09-26T00:50:07.290Z,3.80
2022-09-26T00:55:11.607Z,3.35
2022-09-26T01:00:14.962Z,4.15
2022-09-26T01:05:22.330Z,3.50
2022-09-26T01:10:24.105Z,4.47
2022-09-26T01:15:25.632Z,3.85
2022-09-26T01:20:56.548Z,3.78
2022-09-26T01:26:22.340Z,4.05
2022-09-26T01:31:49.155Z,4.15
2022-09-26T01:37:11.439Z,3.25
2022-09-26T01:42:45.779Z,4.45
2022-09-26T01:48:12.522Z,3.80
2022-09-26T01:53:34.420Z,3.80
2022-09-26T01:58:54.242Z,4.38
2022-09-26T02:04:02.015Z,3.80
2022-09-26T02:09:15.066Z,3.15
2022-09-26T02:14:25.157Z,3.15
2022-09-26T02:19:30.633Z,2.83
2022-09-26T02:24:32.526Z,3.50
2022-09-26T02:29:34.391Z,3.53
2022-09-26T02:34:36.529Z,3.55
2022-09-26T02:39:38.235Z,3.25
2022-09-26T02:44:50.251Z,3.00
2022-09-26T02:50:19.892Z,2.67
2022-09-26T02:55:30.725Z,2.70
2022-09-26T03:00:47.802Z,2.90
2022-09-26T03:05:54.851Z,3.72
2022-09-26T03:11:00.981Z,3.72
2022-09-26T03:16:03.554Z,3.50
2022-09-26T03:21:07.332Z,4.07
2022-09-26T03:26:12.757Z,3.30
2022-09-26T03:31:24.256Z,3.08
2022-09-26T03:36:55.083Z,2.90
2022-09-26T03:41:58.009Z,2.63
2022-09-26T03:47:06.225Z,3.38
2022-09-26T03:52:14.282Z,4.60
2022-09-26T03:57:17.985Z,5.78
2022-09-26T04:02:28.113Z,6.72
2022-09-26T04:07:45.559Z,6.15
2022-09-26T04:12:47.108Z,6.95
2022-09-26T04:17:50.565Z,9.52
2022-09-26T04:22:57.645Z,9.32
2022-09-26T04:27:59.154Z,6.03
2022-09-26T04:33:01.386Z,6.00
2022-09-26T04:38:08.612Z,5.75
2022-09-26T04:43:11.170Z,5.93
2022-09-26T04:48:12.734Z,6.80
2022-09-26T04:53:44.085Z,6.97
2022-09-26T04:59:05.993Z,6.22
2022-09-26T05:04:17.532Z,6.32
2022-09-26T05:09:19.131Z,7.55
2022-09-26T05:14:27.908Z,7.82
2022-09-26T05:19:29.496Z,7.68
2022-09-26T05:24:49.311Z,6.88
2022-09-26T05:29:51.765Z,7.15
2022-09-26T05:34:53.324Z,7.10
2022-09-26T05:39:56.518Z,6.72
2022-09-26T05:45:01.703Z,6.55
2022-09-26T05:50:04.348Z,7.13
2022-09-26T05:55:06.420Z,7.13
2022-09-26T06:00:36.693Z,6.63
2022-09-26T06:05:38.430Z,6.25
2022-09-26T06:10:50.844Z,7.05
2022-09-26T06:15:53.210Z,5.18
2022-09-26T06:20:55.262Z,6.50
2022-09-26T06:25:57.953Z,5.90
2022-09-26T06:30:59.879Z,4.65
2022-09-26T06:36:24.908Z,4.90
2022-09-26T06:41:26.770Z,4.70
2022-09-26T06:46:28.936Z,4.28
2022-09-26T06:51:32.932Z,3.15
2022-09-26T06:56:34.477Z,3.70
2022-09-26T07:01:36.410Z,3.20
2022-09-26T07:06:44.565Z,4.00
2022-09-26T07:12:12.895Z,3.25
2022-09-26T07:17:18.584Z,3.47
2022-09-26T07:22:39.153Z,2.30
2022-09-26T07:27:41.325Z,2.40
2022-09-26T07:32:43.204Z,2.83
2022-09-26T07:37:58.877Z,2.78
2022-09-26T07:43:18.963Z,3.03
2022-09-26T07:48:23.585Z,2.53
2022-09-26T07:53:43.568Z,1.83
2022-09-26T07:59:05.047Z,2.20
2022-09-26T08:04:26.811Z,2.10
2022-09-26T08:09:28.965Z,1.85
2022-09-26T08:14:49.642Z,1.90
2022-09-26T08:20:05.127Z,1.20
2022-09-26T08:25:07.595Z,1.17
2022-09-26T08:30:15.186Z,0.88
2022-09-26T08:35:16.799Z,0.82
2022-09-26T08:40:26.553Z,0.88
2022-09-26T08:46:11.619Z,1.10
2022-09-26T08:51:42.839Z,1.00
2022-09-26T08:56:53.310Z,1.30
2022-09-26T09:02:04.253Z,1.15
2022-09-26T09:07:21.978Z,1.20
2022-09-26T09:12:59.081Z,1.48
2022-09-26T09:19:18.652Z,1.00
2022-09-26T09:24:46.413Z,1.42
2022-09-26T09:30:17.096Z,1.38
2022-09-26T09:36:05.321Z,1.13
2022-09-26T09:41:25.429Z,1.52
2022-09-26T09:46:27.351Z,1.70
2022-09-26T09:52:00.251Z,1.58
2022-09-26T09:57:23.095Z,1.58
2022-09-26T10:02:43.632Z,1.98
2022-09-26T10:07:55.081Z,2.53
2022-09-26T10:13:16.275Z,1.83
2022-09-26T10:18:57.167Z,1.65
2022-09-26T10:24:03.572Z,1.48
2022-09-26T10:29:29.953Z,1.85
2022-09-26T10:34:34.626Z,1.85
2022-09-26T10:39:39.353Z,2.38
2022-09-26T10:44:41.530Z,1.95
2022-09-26T10:49:57.583Z,2.17
2022-09-26T10:55:32.798Z,3.03
2022-09-26T11:00:34.521Z,3.05
2022-09-26T11:05:38.694Z,3.42
2022-09-26T11:10:51.815Z,3.17
2022-09-26T11:16:12.173Z,2.60
2022-09-26T11:21:38.235Z,2.05
2022-09-26T11:26:52.463Z,1.95
2022-09-26T11:32:00.048Z,2.72
2022-09-26T11:37:34.235Z,3.33
2022-09-26T11:42:47.406Z,2.08
2022-09-26T11:47:51.994Z,1.70
2022-09-26T11:53:33.862Z,1.13
2022-09-26T11:59:10.552Z,0.80
2022-09-26T12:04:35.145Z,0.80
2022-09-26T12:09:42.583Z,0.95
2022-09-26T12:15:01.032Z,1.25
2022-09-26T12:20:23.038Z,0.77
2022-09-26T12:25:37.481Z,1.00
2022-09-26T12:30:58.231Z,0.90
2022-09-26T12:36:05.761Z,0.85
2022-09-26T12:41:13.216Z,0.82
2022-09-26T12:46:31.294Z,0.77
2022-09-26T12:51:42.922Z,1.10
2022-09-26T12:56:50.339Z,1.00
2022-09-26T13:02:21.030Z,1.15
2022-09-26T13:07:40.663Z,1.33
2022-09-26T13:12:55.084Z,1.35
2022-09-26T13:18:04.464Z,1.00
2022-09-26T13:23:26.184Z,1.08
2022-09-26T13:28:47.542Z,1.30
2022-09-26T13:34:09.098Z,1.83
2022-09-26T13:39:16.269Z,2.05
2022-09-26T13:44:28.107Z,1.50
2022-09-26T13:49:32.623Z,2.00
2022-09-26T13:54:55.151Z,1.63
2022-09-26T13:59:56.761Z,2.60
2022-09-26T14:05:01.058Z,2.17
2022-09-26T14:10:02.524Z,2.13
2022-09-26T14:15:26.003Z,2.70
2022-09-26T14:20:33.872Z,3.47
2022-09-26T14:25:44.582Z,7.35
2022-09-26T14:31:23.400Z,3.15
2022-09-26T14:36:33.299Z,2.35
2022-09-26T14:41:36.104Z,1.90
2022-09-26T14:46:41.275Z,2.10
2022-09-26T14:51:48.705Z,2.08
2022-09-26T14:57:00.763Z,2.28
2022-09-26T15:02:14.318Z,2.10
2022-09-26T15:07:23.600Z,3.42
2022-09-26T15:12:41.267Z,4.30
2022-09-26T15:17:50.103Z,3.58
2022-09-26T15:22:54.182Z,2.55
2022-09-26T15:27:56.725Z,1.90
2022-09-26T15:33:00.252Z,2.90
2022-09-26T15:38:09.372Z,2.30
2022-09-26T15:43:18.991Z,2.00
2022-09-26T15:48:20.499Z,2.22
2022-09-26T15:53:40.096Z,2.15
2022-09-26T15:58:51.353Z,3.65
2022-09-26T16:03:52.833Z,4.53
2022-09-26T16:09:23.171Z,4.72
2022-09-26T16:14:31.059Z,3.15
2022-09-26T16:19:34.909Z,4.07
2022-09-26T16:24:36.627Z,4.13
2022-09-26T16:29:38.198Z,4.20
2022-09-26T16:34:39.790Z,5.10
2022-09-26T16:39:41.449Z,3.80
2022-09-26T16:44:51.874Z,3.40
2022-09-26T16:49:53.416Z,3.22
2022-09-26T16:54:56.901Z,3.40
2022-09-26T17:00:01.746Z,3.20
2022-09-26T17:05:03.313Z,3.13
2022-09-26T17:10:05.291Z,3.58
2022-09-26T17:15:09.106Z,3.42
2022-09-26T17:20:13.975Z,5.35
2022-09-26T17:25:16.150Z,3.45
2022-09-26T17:30:19.182Z,3.25
2022-09-26T17:35:31.218Z,2.92
2022-09-26T17:40:33.425Z,3.03
2022-09-26T17:45:49.315Z,3.33
2022-09-26T17:50:51.255Z,2.88
2022-09-26T17:55:52.881Z,3.00
2022-09-26T18:00:54.634Z,4.95
2022-09-26T18:05:56.415Z,4.90
2022-09-26T18:11:02.224Z,4.13
2022-09-26T18:16:04.046Z,3.92
2022-09-26T18:21:09.140Z,3.75
2022-09-26T18:26:25.867Z,3.70
2022-09-26T18:31:33.033Z,3.42
2022-09-26T18:36:34.752Z,3.65
2022-09-26T18:41:37.649Z,3.67
2022-09-26T18:46:39.415Z,3.65
2022-09-26T18:51:41.627Z,4.47
2022-09-26T18:56:43.347Z,4.22
2022-09-26T19:01:45.167Z,3.88
2022-09-26T19:06:52.051Z,4.03
2022-09-26T19:16:55.962Z,3.95
2022-09-26T19:22:00.719Z,3.55
2022-09-26T19:27:06.830Z,4.75
2022-09-26T19:32:18.944Z,3.63
2022-09-26T19:37:20.805Z,1.83
2022-09-26T19:42:22.509Z,1.38
2022-09-26T19:47:24.178Z,1.70
2022-09-26T19:52:25.845Z,1.23
2022-09-26T19:57:27.721Z,0.90
2022-09-26T20:02:32.157Z,1.30
2022-09-26T20:07:34.005Z,1.35
2022-09-26T20:12:35.649Z,1.17
2022-09-26T20:17:37.683Z,2.30
2022-09-26T20:22:39.978Z,3.88
2022-09-26T20:27:41.606Z,4.10
2022-09-26T20:32:43.257Z,3.85
2022-09-26T20:37:44.941Z,4.68
2022-09-26T20:42:50.845Z,3.58
2022-09-26T20:47:52.491Z,3.90
2022-09-26T20:52:54.077Z,3.92
2022-09-26T20:57:55.745Z,3.90
2022-09-26T21:02:57.431Z,5.00
2022-09-26T21:08:00.500Z,3.80
2022-09-26T21:13:02.484Z,4.30
2022-09-26T21:18:04.386Z,4.85
2022-09-26T21:23:08.602Z,4.13
2022-09-26T21:28:24.553Z,4.88
2022-09-26T21:33:26.499Z,4.13
2022-09-26T21:38:28.303Z,3.85
2022-09-26T21:43:36.510Z,3.88
2022-09-26T21:48:38.356Z,3.70
2022-09-26T21:53:55.542Z,4.80
2022-09-26T21:58:57.857Z,4.90
2022-09-26T22:03:59.483Z,5.78
2022-09-26T22:09:01.242Z,5.57
2022-09-26T22:14:04.415Z,5.93
2022-09-26T22:19:06.134Z,7.07
2022-09-26T22:24:07.748Z,5.47
2022-09-26T22:29:09.391Z,5.75
2022-09-26T22:34:11.091Z,5.50
2022-09-26T22:39:12.746Z,7.28
2022-09-26T22:44:14.393Z,7.65
2022-09-26T22:49:16.047Z,7.05
2022-09-26T22:54:17.808Z,5.82
2022-09-26T22:59:19.538Z,5.18
2022-09-26T23:04:21.132Z,4.38
2022-09-26T23:09:22.754Z,3.88
2022-09-26T23:14:24.348Z,4.82
2022-09-26T23:19:25.996Z,6.38
2022-09-26T23:24:27.746Z,7.85
2022-09-26T23:29:29.373Z,7.57
2022-09-26T23:34:30.957Z,7.93
2022-09-26T23:39:32.618Z,7.78
2022-09-26T23:44:34.319Z,7.25
2022-09-26T23:49:35.965Z,6.55
2022-09-26T23:54:37.710Z,7.72
2022-09-26T23:59:39.337Z,4.15
